createdAt,value
2022-12-22T00:04:55.176Z,1.60
2022-12-22T00:10:15.513Z,1.60
2022-12-22T00:15:36.555Z,1.30
2022-12-22T00:20:56.771Z,1.20
2022-12-22T00:26:17.465Z,1.30
2022-12-22T00:31:39.267Z,1.00
2022-12-22T00:36:59.196Z,0.90
2022-12-22T00:42:19.322Z,1.00
2022-12-22T00:47:44.452Z,1.10
2022-12-22T00:53:04.737Z,1.10
2022-12-22T00:58:32.564Z,1.20
2022-12-22T01:03:53.062Z,1.00
2022-12-22T01:09:13.256Z,1.80
2022-12-22T01:14:35.122Z,2.20
2022-12-22T01:19:55.260Z,2.60
2022-12-22T01:25:15.653Z,2.40
2022-12-22T01:30:35.872Z,2.63
2022-12-22T01:35:56.142Z,2.87
2022-12-22T01:41:18.411Z,2.57
2022-12-22T01:46:41.806Z,2.50
2022-12-22T01:52:02.182Z,2.20
2022-12-22T01:57:22.673Z,2.07
2022-12-22T02:02:44.080Z,1.80
2022-12-22T02:08:07.285Z,1.80
2022-12-22T02:13:53.829Z,1.70
2022-12-22T02:19:26.717Z,1.70
2022-12-22T02:25:09.357Z,1.60
2022-12-22T02:30:31.369Z,1.10
2022-12-22T02:36:15.018Z,0.90
2022-12-22T02:41:52.298Z,1.00
2022-12-22T02:47:22.512Z,1.00
2022-12-22T02:52:53.722Z,1.37
2022-12-22T02:58:17.791Z,1.13
2022-12-22T03:03:38.086Z,1.30
2022-12-22T03:08:58.708Z,1.23
2022-12-22T03:14:18.929Z,1.40
2022-12-22T03:19:39.233Z,1.23
2022-12-22T03:25:00.000Z,1.53
2022-12-22T03:30:01.568Z,1.43
2022-12-22T03:35:03.409Z,1.33
2022-12-22T03:40:05.602Z,1.50
2022-12-22T03:45:28.205Z,1.37
2022-12-22T03:50:29.721Z,1.40
2022-12-22T03:55:31.445Z,1.40
2022-12-22T04:00:33.028Z,1.33
2022-12-22T04:05:34.525Z,1.20
2022-12-22T04:10:54.794Z,1.20
2022-12-22T04:15:56.359Z,1.47
2022-12-22T04:20:57.951Z,1.47
2022-12-22T04:26:00.195Z,1.87
2022-12-22T04:31:01.822Z,1.47
2022-12-22T04:36:03.781Z,1.70
2022-12-22T04:41:26.396Z,1.80
2022-12-22T04:46:33.399Z,1.53
2022-12-22T04:51:35.104Z,1.57
2022-12-22T04:56:37.962Z,1.50
2022-12-22T05:01:48.299Z,1.50
2022-12-22T05:06:50.484Z,1.50
2022-12-22T05:11:54.989Z,1.30
2022-12-22T05:17:02.885Z,1.20
2022-12-22T05:22:04.603Z,0.67
2022-12-22T05:27:06.293Z,0.70
2022-12-22T05:32:08.072Z,0.50
2022-12-22T05:37:12.969Z,0.70
2022-12-22T05:42:35.708Z,0.50
2022-12-22T05:47:39.817Z,0.70
2022-12-22T05:52:54.889Z,0.50
2022-12-22T05:57:56.394Z,0.83
2022-12-22T06:02:59.141Z,0.60
2022-12-22T06:08:07.604Z,0.93
2022-12-22T06:13:09.213Z,1.00
2022-12-22T06:18:30.734Z,1.10
2022-12-22T06:23:33.326Z,1.03
2022-12-22T06:28:35.024Z,1.20
2022-12-22T06:33:40.442Z,1.20
2022-12-22T06:39:02.319Z,1.23
2022-12-22T06:44:03.901Z,1.10
2022-12-22T06:49:14.997Z,1.40
2022-12-22T06:54:20.825Z,1.63
2022-12-22T06:59:27.349Z,1.40
2022-12-22T07:04:30.445Z,1.40
2022-12-22T07:09:32.040Z,1.93
2022-12-22T07:14:36.181Z,1.80
2022-12-22T07:19:49.707Z,1.40
2022-12-22T07:24:51.360Z,1.13
2022-12-22T07:29:53.033Z,1.00
2022-12-22T07:35:10.684Z,1.17
2022-12-22T07:40:30.260Z,1.30
2022-12-22T07:45:34.110Z,1.00
2022-12-22T07:50:35.613Z,1.17
2022-12-22T07:55:37.291Z,1.57
2022-12-22T08:00:39.230Z,1.53
2022-12-22T08:05:40.851Z,1.30
2022-12-22T08:10:42.376Z,1.30
2022-12-22T08:15:43.986Z,1.60
2022-12-22T08:20:50.720Z,1.70
2022-12-22T08:25:56.308Z,1.67
2022-12-22T08:30:59.021Z,1.60
2022-12-22T08:36:07.505Z,1.80
2022-12-22T08:41:12.599Z,1.87
2022-12-22T08:46:14.203Z,2.13
2022-12-22T08:51:15.761Z,2.07
2022-12-22T08:56:17.282Z,2.10
2022-12-22T09:01:44.238Z,2.30
2022-12-22T09:07:06.657Z,2.10
2022-12-22T09:12:28.689Z,2.40
2022-12-22T09:17:33.501Z,2.70
2022-12-22T09:22:35.039Z,3.10
2022-12-22T09:27:56.442Z,2.90
2022-12-22T09:32:59.008Z,3.87
2022-12-22T09:38:00.699Z,4.63
2022-12-22T09:43:04.177Z,5.73
2022-12-22T09:48:06.844Z,5.57
2022-12-22T09:53:14.428Z,6.73
2022-12-22T09:58:34.729Z,7.13
2022-12-22T10:03:39.296Z,7.80
2022-12-22T10:08:41.165Z,7.37
2022-12-22T10:13:42.943Z,7.70
2022-12-22T10:19:15.204Z,8.60
2022-12-22T10:24:29.279Z,8.40
2022-12-22T10:29:32.534Z,9.10
2022-12-22T10:34:34.233Z,9.60
2022-12-22T10:39:36.517Z,8.57
2022-12-22T10:44:38.767Z,7.43
2022-12-22T10:55:36.104Z,6.33
2022-12-22T11:01:00.724Z,7.20
2022-12-22T11:06:20.410Z,6.80
2022-12-22T11:11:46.166Z,6.30
2022-12-22T11:17:08.947Z,6.80
2022-12-22T11:22:27.137Z,7.37
2022-12-22T11:28:00.664Z,7.10
2022-12-22T11:33:45.950Z,6.73
2022-12-22T11:39:00.621Z,6.77
2022-12-22T11:44:40.369Z,7.57
2022-12-22T11:49:50.795Z,7.47
2022-12-22T11:55:19.319Z,7.07
2022-12-22T12:00:25.164Z,6.40
2022-12-22T12:06:16.718Z,5.90
2022-12-22T12:11:30.399Z,5.93
2022-12-22T12:17:03.627Z,4.70
2022-12-22T12:22:28.651Z,4.93
2022-12-22T12:27:45.327Z,4.97
2022-12-22T12:33:03.728Z,5.90
2022-12-22T12:38:32.583Z,5.40
2022-12-22T12:43:35.652Z,5.33
2022-12-22T12:48:40.178Z,5.90
2022-12-22T12:54:20.469Z,5.30
2022-12-22T12:59:41.940Z,5.70
2022-12-22T13:05:13.530Z,5.17
2022-12-22T13:10:20.230Z,5.53
2022-12-22T13:15:33.969Z,5.67
2022-12-22T13:20:37.200Z,5.43
2022-12-22T13:25:41.958Z,5.37
2022-12-22T13:31:13.578Z,5.47
2022-12-22T13:36:26.182Z,5.50
2022-12-22T13:41:28.085Z,5.57
2022-12-22T13:46:30.282Z,5.57
2022-12-22T13:51:35.786Z,5.47
2022-12-22T13:56:41.283Z,5.27
2022-12-22T14:01:56.590Z,5.50
2022-12-22T14:07:19.583Z,5.00
2022-12-22T14:12:24.084Z,5.10
2022-12-22T14:17:28.258Z,5.20
2022-12-22T14:22:36.638Z,5.20
2022-12-22T14:27:42.087Z,5.47
2022-12-22T14:32:52.422Z,5.47
2022-12-22T14:38:16.524Z,5.10
2022-12-22T14:43:18.020Z,7.10
2022-12-22T14:48:32.532Z,5.70
2022-12-22T14:53:44.943Z,5.93
2022-12-22T14:58:48.002Z,5.33
2022-12-22T15:04:01.872Z,5.67
2022-12-22T15:09:06.799Z,6.13
2022-12-22T15:14:15.416Z,4.87
2022-12-22T15:19:22.395Z,5.30
2022-12-22T15:24:24.187Z,4.27
2022-12-22T15:29:27.019Z,4.07
2022-12-22T15:34:31.267Z,4.70
2022-12-22T15:39:33.616Z,4.07
2022-12-22T15:44:38.695Z,3.70
2022-12-22T15:49:40.858Z,3.23
2022-12-22T15:54:42.388Z,3.10
2022-12-22T15:59:44.206Z,3.00
2022-12-22T16:04:45.810Z,2.73
2022-12-22T16:09:48.695Z,2.80
2022-12-22T16:14:53.146Z,2.83
2022-12-22T16:19:54.711Z,2.40
2022-12-22T16:24:56.231Z,2.30
2022-12-22T16:29:57.977Z,2.20
2022-12-22T16:35:08.946Z,2.40
2022-12-22T16:40:11.524Z,2.07
2022-12-22T16:45:20.010Z,1.80
2022-12-22T16:50:25.427Z,1.80
2022-12-22T16:55:27.656Z,1.70
2022-12-22T17:00:30.996Z,1.60
2022-12-22T17:05:43.942Z,1.60
2022-12-22T17:10:46.418Z,1.87
2022-12-22T17:15:48.320Z,1.63
2022-12-22T17:20:52.816Z,1.90
2022-12-22T17:25:54.607Z,1.77
2022-12-22T17:30:56.189Z,1.77
2022-12-22T17:35:59.029Z,2.20
2022-12-22T17:41:03.139Z,2.20
2022-12-22T17:46:05.706Z,2.40
2022-12-22T17:51:15.014Z,1.97
2022-12-22T17:56:22.128Z,1.80
2022-12-22T18:01:31.856Z,1.80
2022-12-22T18:06:35.793Z,1.80
2022-12-22T18:11:42.196Z,1.83
2022-12-22T18:16:47.590Z,2.83
2022-12-22T18:21:49.279Z,2.67
2022-12-22T18:26:50.803Z,2.00
2022-12-22T18:31:53.912Z,1.90
2022-12-22T18:36:55.645Z,1.90
2022-12-22T18:41:58.178Z,1.70
2022-12-22T18:47:00.009Z,1.70
2022-12-22T18:52:01.582Z,1.70
2022-12-22T18:57:03.457Z,1.90
2022-12-22T19:02:23.199Z,1.67
2022-12-22T19:07:25.609Z,1.83
2022-12-22T19:12:27.920Z,2.00
2022-12-22T19:17:29.474Z,2.33
2022-12-22T19:22:31.079Z,2.07
2022-12-22T19:27:33.028Z,1.90
2022-12-22T19:32:41.769Z,1.73
2022-12-22T19:37:43.869Z,2.10
2022-12-22T19:42:49.177Z,2.00
2022-12-22T19:47:51.793Z,2.33
2022-12-22T19:52:54.997Z,2.50
2022-12-22T19:57:56.636Z,2.63
2022-12-22T20:02:58.617Z,2.77
2022-12-22T20:08:01.573Z,2.80
2022-12-22T20:13:06.899Z,2.97
2022-12-22T20:18:34.531Z,2.60
2022-12-22T20:23:37.610Z,3.03
2022-12-22T20:28:40.028Z,2.90
2022-12-22T20:33:42.028Z,2.53
2022-12-22T20:38:44.054Z,2.60
2022-12-22T20:43:45.699Z,2.40
2022-12-22T20:48:50.023Z,2.40
2022-12-22T20:53:53.084Z,1.90
2022-12-22T20:58:55.275Z,2.00
2022-12-22T21:03:56.994Z,2.23
2022-12-22T21:09:00.286Z,2.27
2022-12-22T21:14:02.387Z,2.57
2022-12-22T21:19:04.162Z,2.20
2022-12-22T21:24:05.981Z,2.30
2022-12-22T21:29:11.082Z,1.93
2022-12-22T21:34:12.775Z,2.17
2022-12-22T21:39:31.712Z,1.90
2022-12-22T21:44:34.593Z,2.13
2022-12-22T21:49:36.112Z,2.03
2022-12-22T21:54:37.867Z,1.93
2022-12-22T21:59:39.508Z,2.00
2022-12-22T22:04:41.075Z,1.80
2022-12-22T22:09:42.556Z,2.43
2022-12-22T22:14:44.291Z,1.80
2022-12-22T22:19:45.856Z,2.30
2022-12-22T22:24:47.454Z,2.20
2022-12-22T22:29:48.992Z,2.90
2022-12-22T22:34:52.183Z,2.70
2022-12-22T22:39:53.861Z,2.90
2022-12-22T22:44:55.474Z,3.20
2022-12-22T22:49:57.055Z,3.20
2022-12-22T22:54:58.715Z,2.47
2022-12-22T23:00:00.247Z,2.30
2022-12-22T23:05:01.954Z,2.83
2022-12-22T23:10:05.348Z,2.60
2022-12-22T23:15:07.561Z,2.37
2022-12-22T23:20:09.422Z,2.40
2022-12-22T23:25:11.027Z,2.37
2022-12-22T23:30:12.997Z,2.80
2022-12-22T23:35:14.602Z,2.80
2022-12-22T23:40:50.670Z,2.50
2022-12-22T23:45:39.361Z,2.20
2022-12-22T23:50:41.018Z,2.07
2022-12-22T23:55:46.379Z,1.73
